»·PEaware :: WAT202 KPHX-KSAN

WAT202 :: KPHX-KSAN

FLIGHT INFORMATION

Flight Status: Arrived
Operator:
Walker Air Transport
More flights by this operator :: More flights under this callsign
Pilot: Nick L. (7253)
Aircraft: BOEING 737-800
(B738)
More flights by this aircraft type
Origin: KPHX Phoenix Sky Harbor Intl
United States
Destination: KSAN San Diego Intl-Lindbergh
United States
More flights between these airports :: More routes between these airports
Route: +FYRBD1 MOHAK IPL LUCKI1
File this flight plan on PilotEdge
Remarks:
Altitude:
(Current/Filed)
36,000ft
Speed:
(Current/Filed)
458kts
Departed: 19-May-20 03:36 PM
Arrived: 19-May-20 04:28 PM
Distance/Time
Traveled:
264nm/0:52
Distance/Time
To Go:
Arrived

Flight Plot

Page will automatically refresh every two minutes.

Flight plan parsing failed; only flown route is shown


Map Options




Map Legend


Flown Route
Filed Route
Departure Airport
Arrival Airport
Navaid (VOR, NDB)
Fix

Horizontal Profiles

Position Reports

Time Latitude Longitude Heading Altitude Ground
Speed
19-May-20 15:15 33.437577 -111.994871 89 1145ft 0kts
19-May-20 15:16 33.437577 -111.994871 89 1145ft 0kts
19-May-20 15:17 33.437577 -111.994871 90 1145ft 0kts
19-May-20 15:18 33.437577 -111.994871 90 1145ft 0kts
19-May-20 15:19 33.437577 -111.994871 90 1145ft 0kts
19-May-20 15:20 33.437577 -111.994871 90 1145ft 0kts
19-May-20 15:21 33.437577 -111.994871 90 1145ft 0kts
19-May-20 15:22 33.437577 -111.994871 90 1145ft 0kts
19-May-20 15:23 33.437577 -111.994871 90 1145ft 0kts
19-May-20 15:24 33.437577 -111.994871 90 1145ft 0kts
19-May-20 15:25 33.437577 -111.994871 90 1145ft 0kts
19-May-20 15:26 33.437577 -111.994871 90 1145ft 0kts
19-May-20 15:27 33.437577 -111.994872 90 1145ft 0kts
19-May-20 15:28 33.437514 -111.995217 45 1146ft 2kts
19-May-20 15:29 33.437243 -111.995328 359 1144ft 0kts
19-May-20 15:30 33.437244 -111.995328 359 1144ft 0kts
19-May-20 15:31 33.437244 -111.995328 359 1144ft 0kts
19-May-20 15:32 33.437736 -111.995331 359 1148ft 1kts
19-May-20 15:33 33.438981 -111.992871 91 1151ft 18kts
19-May-20 15:34 33.439891 -111.992353 12 1155ft 10kts
19-May-20 15:35 33.440816 -112.005235 271 1137ft 141kts
19-May-20 15:36 33.436883 -112.066721 252 3163ft 223kts
19-May-20 15:37 33.409034 -112.141548 239 6503ft 255kts
19-May-20 15:38 33.347559 -112.175782 171 10031ft 273kts
19-May-20 15:39 33.263669 -112.151142 189 11554ft 336kts
19-May-20 15:40 33.216686 -112.239931 258 14301ft 364kts
19-May-20 15:41 33.170707 -112.343957 229 16911ft 360kts
19-May-20 15:42 33.108524 -112.439758 229 19288ft 370kts
19-May-20 15:43 33.044840 -112.538348 230 21377ft 382kts
19-May-20 15:44 32.980175 -112.641689 238 22887ft 400kts
19-May-20 15:45 32.946643 -112.769883 254 24253ft 409kts
19-May-20 15:46 32.926172 -112.904632 256 26070ft 416kts
19-May-20 15:47 32.907217 -113.041062 256 27770ft 420kts
19-May-20 15:48 32.888384 -113.178472 257 29367ft 423kts
19-May-20 15:49 32.869500 -113.315887 257 31275ft 416kts
19-May-20 15:50 32.850849 -113.450462 256 33055ft 408kts
19-May-20 15:52 32.832404 -113.582423 256 34612ft 401kts
19-May-20 15:53 32.814021 -113.712059 256 35870ft 399kts
19-May-20 15:54 32.794498 -113.844362 256 35944ft 408kts
19-May-20 15:55 32.778538 -113.977130 262 35945ft 408kts
19-May-20 15:56 32.777109 -114.113448 267 35945ft 413kts
19-May-20 15:57 32.782311 -114.250323 267 35945ft 413kts
19-May-20 15:58 32.794812 -114.386546 276 35945ft 420kts
19-May-20 15:59 32.826181 -114.520906 281 35945ft 424kts
19-May-20 16:00 32.861433 -114.654450 277 35945ft 421kts
19-May-20 16:01 32.853568 -114.788827 256 35948ft 406kts
19-May-20 16:02 32.834324 -114.921021 256 35958ft 406kts
19-May-20 16:03 32.815114 -115.053080 256 34562ft 403kts
19-May-20 16:04 32.796165 -115.183555 257 31552ft 400kts
19-May-20 16:05 32.777867 -115.309731 258 29387ft 376kts
19-May-20 16:06 32.760126 -115.431559 258 27296ft 383kts
19-May-20 16:06 32.750675 -115.533196 266 25719ft 369kts
19-May-20 16:08 32.750296 -115.666737 267 23437ft 347kts
19-May-20 16:09 32.750717 -115.783638 268 21372ft 353kts
19-May-20 16:09 32.751203 -115.878856 268 19665ft 338kts
19-May-20 16:10 32.751661 -115.987899 268 18065ft 313kts
19-May-20 16:12 32.752037 -116.116489 268 15875ft 331kts
19-May-20 16:12 32.752253 -116.205691 268 14230ft 316kts
19-May-20 16:13 32.751058 -116.305039 264 13185ft 291kts
19-May-20 16:14 32.743241 -116.399997 264 11583ft 280kts
19-May-20 16:15 32.736274 -116.489077 264 10574ft 253kts
19-May-20 16:16 32.728743 -116.569144 263 9764ft 244kts
19-May-20 16:17 32.720911 -116.650064 263 8513ft 243kts
19-May-20 16:18 32.714490 -116.729462 265 7322ft 239kts
19-May-20 16:19 32.708295 -116.807393 263 6147ft 233kts
19-May-20 16:20 32.689079 -116.877330 251 5090ft 216kts
19-May-20 16:21 32.674726 -116.940669 273 4123ft 180kts
19-May-20 16:22 32.685868 -116.993485 286 3335ft 162kts
19-May-20 16:23 32.698332 -117.044763 286 2624ft 161kts
19-May-20 16:24 32.709824 -117.091857 286 1758ft 139kts
19-May-20 16:25 32.720303 -117.134983 286 857ft 136kts
19-May-20 16:26 32.730765 -117.178132 286 120ft 137kts
19-May-20 16:27 32.735998 -117.202063 192 25ft 12kts
19-May-20 16:28 32.734545 -117.203382 231 24ft 2kts
19-May-20 16:29 32.734522 -117.203415 230 24ft 0kts
19-May-20 16:30 32.734522 -117.203415 230 24ft 0kts
19-May-20 16:31 32.734522 -117.203415 230 24ft 0kts

Navigation Log

Ident Type
Flight plan parsing failed, navigation log unavailable